createdAt,value
2018-01-07T00:00:55.129Z,20.90
2018-01-07T00:03:24.196Z,17.30
2018-01-07T00:05:52.298Z,15.87
2018-01-07T00:08:20.471Z,14.63
2018-01-07T00:10:48.706Z,14.43
2018-01-07T00:13:16.876Z,12.33
2018-01-07T00:15:44.957Z,14.77
2018-01-07T00:18:13.062Z,10.40
2018-01-07T00:20:41.155Z,20.87
2018-01-07T00:23:09.247Z,39.73
2018-01-07T00:25:37.460Z,13.20
2018-01-07T00:28:05.574Z,13.23
2018-01-07T00:30:33.727Z,11.57
2018-01-07T00:33:01.853Z,11.30
2018-01-07T00:35:29.947Z,12.03
2018-01-07T00:37:58.069Z,12.43
2018-01-07T00:40:26.155Z,25.33
2018-01-07T00:42:54.263Z,20.30
2018-01-07T00:45:22.355Z,10.70
2018-01-07T00:47:50.455Z,14.57
2018-01-07T00:50:18.651Z,19.70
2018-01-07T00:52:46.739Z,10.63
2018-01-07T00:55:16.547Z,13.53
2018-01-07T00:57:44.983Z,21.33
2018-01-07T01:00:13.089Z,12.80
2018-01-07T01:02:41.170Z,10.37
2018-01-07T01:05:09.271Z,13.50
2018-01-07T01:07:37.382Z,10.47
2018-01-07T01:10:06.016Z,14.70
2018-01-07T01:12:34.100Z,25.40
2018-01-07T01:15:02.202Z,30.07
2018-01-07T01:17:31.053Z,33.97
2018-01-07T01:19:59.233Z,15.10
2018-01-07T01:22:27.345Z,13.97
2018-01-07T01:24:55.445Z,21.57
2018-01-07T01:27:23.532Z,12.77
2018-01-07T01:29:51.657Z,27.40
2018-01-07T01:32:20.504Z,17.07
2018-01-07T01:34:49.234Z,35.90
2018-01-07T01:37:17.453Z,13.33
2018-01-07T01:39:45.619Z,14.47
2018-01-07T01:42:13.770Z,14.03
2018-01-07T01:44:41.863Z,15.57
2018-01-07T01:47:09.971Z,12.20
2018-01-07T01:49:38.061Z,14.80
2018-01-07T01:52:06.984Z,23.23
2018-01-07T01:54:35.541Z,17.13
2018-01-07T01:57:03.647Z,17.80
2018-01-07T01:59:31.733Z,13.30
2018-01-07T02:01:59.831Z,10.37
2018-01-07T02:04:28.025Z,12.50
2018-01-07T02:06:56.105Z,15.60
2018-01-07T02:09:24.207Z,13.70
2018-01-07T02:11:52.279Z,22.90
2018-01-07T02:14:20.379Z,19.93
2018-01-07T02:16:48.464Z,13.67
2018-01-07T02:19:16.567Z,11.60
2018-01-07T02:21:44.696Z,9.87
2018-01-07T02:24:12.798Z,20.30
2018-01-07T02:26:40.881Z,8.87
2018-01-07T02:29:09.626Z,22.03
2018-01-07T02:31:37.845Z,30.70
2018-01-07T02:34:05.976Z,21.63
2018-01-07T02:36:34.100Z,27.67
2018-01-07T02:39:02.194Z,18.07
2018-01-07T02:41:31.018Z,35.40
2018-01-07T02:43:59.165Z,11.63
2018-01-07T02:46:27.451Z,18.27
2018-01-07T02:48:55.598Z,19.03
2018-01-07T02:51:23.776Z,14.73
2018-01-07T02:53:52.029Z,13.87
2018-01-07T02:56:20.167Z,10.70
2018-01-07T02:58:48.316Z,18.30
2018-01-07T03:01:16.394Z,9.20
2018-01-07T03:03:44.497Z,17.73
2018-01-07T03:06:12.577Z,17.90
2018-01-07T03:08:41.431Z,23.80
2018-01-07T03:11:09.569Z,18.47
2018-01-07T03:13:37.703Z,9.37
2018-01-07T03:16:05.833Z,9.00
2018-01-07T03:18:33.935Z,13.70
2018-01-07T03:21:02.031Z,25.53
2018-01-07T03:23:30.115Z,31.60
2018-01-07T03:25:58.255Z,18.83
2018-01-07T03:28:26.388Z,12.07
2018-01-07T03:30:54.492Z,19.97
2018-01-07T03:33:22.673Z,21.37
2018-01-07T03:35:50.838Z,20.37
2018-01-07T03:38:18.926Z,8.80
2018-01-07T03:40:47.991Z,10.60
2018-01-07T03:43:16.075Z,9.07
2018-01-07T03:45:44.186Z,8.67
2018-01-07T03:48:12.283Z,15.03
2018-01-07T03:50:40.364Z,8.90
2018-01-07T03:53:08.460Z,9.60
2018-01-07T03:55:36.544Z,19.53
2018-01-07T03:58:04.670Z,14.87
2018-01-07T04:00:32.752Z,21.00
2018-01-07T04:03:00.933Z,11.77
2018-01-07T04:05:29.042Z,32.33
2018-01-07T04:07:57.162Z,12.80
2018-01-07T04:10:25.306Z,16.90
2018-01-07T04:12:53.446Z,14.93
2018-01-07T04:15:21.551Z,21.23
2018-01-07T04:17:49.680Z,12.50
2018-01-07T04:20:17.968Z,21.67
2018-01-07T04:22:46.169Z,8.87
2018-01-07T04:25:14.321Z,8.33
2018-01-07T04:27:42.398Z,9.10
2018-01-07T04:30:11.262Z,19.90
2018-01-07T04:32:39.356Z,10.13
2018-01-07T04:35:07.482Z,11.50
2018-01-07T04:37:35.633Z,15.03
2018-01-07T04:40:03.743Z,19.00
2018-01-07T04:42:31.867Z,21.37
2018-01-07T04:45:00.719Z,28.80
2018-01-07T04:47:28.837Z,25.70
2018-01-07T04:49:56.969Z,26.93
2018-01-07T04:52:25.115Z,24.77
2018-01-07T04:54:53.228Z,23.30
2018-01-07T04:57:21.459Z,15.40
2018-01-07T04:59:49.697Z,20.10
2018-01-07T05:02:17.963Z,26.70
2018-01-07T05:04:46.189Z,22.47
2018-01-07T05:07:14.801Z,43.27
2018-01-07T05:09:42.906Z,28.03
2018-01-07T05:12:10.994Z,55.33
2018-01-07T05:14:39.213Z,15.97
2018-01-07T05:17:07.410Z,13.53
2018-01-07T05:19:35.644Z,20.17
2018-01-07T05:22:03.838Z,22.50
2018-01-07T05:24:31.942Z,91.80
2018-01-07T05:27:00.839Z,66.83
2018-01-07T05:29:28.950Z,72.73
2018-01-07T05:31:57.060Z,44.20
2018-01-07T05:34:25.152Z,118.53
2018-01-07T05:36:53.256Z,60.33
2018-01-07T05:39:21.357Z,56.87
2018-01-07T05:41:49.478Z,27.37
2018-01-07T05:44:17.629Z,61.93
2018-01-07T05:46:46.334Z,56.63
2018-01-07T05:49:14.403Z,89.77
2018-01-07T05:51:42.532Z,73.77
2018-01-07T05:54:10.624Z,53.60
2018-01-07T05:56:38.717Z,14.70
2018-01-07T05:59:08.291Z,31.00
2018-01-07T06:01:36.396Z,11.37
2018-01-07T06:04:05.253Z,24.53
2018-01-07T06:06:33.355Z,29.07
2018-01-07T06:09:01.481Z,16.43
2018-01-07T06:11:30.563Z,38.17
2018-01-07T06:13:58.821Z,103.60
2018-01-07T06:16:26.937Z,88.70
2018-01-07T06:18:55.044Z,112.03
2018-01-07T06:21:23.135Z,80.77
2018-01-07T06:23:51.272Z,154.70
2018-01-07T06:26:19.905Z,129.63
2018-01-07T06:28:48.920Z,168.03
2018-01-07T06:31:17.076Z,97.70
2018-01-07T06:33:45.228Z,167.03
2018-01-07T06:36:13.343Z,65.83
2018-01-07T06:38:41.539Z,161.33
2018-01-07T06:41:09.793Z,187.00
2018-01-07T06:43:37.912Z,86.40
2018-01-07T06:46:06.021Z,124.07
2018-01-07T06:48:34.132Z,142.03
2018-01-07T06:51:02.308Z,181.23
2018-01-07T06:53:30.418Z,110.63
2018-01-07T06:55:58.507Z,104.00
2018-01-07T06:58:26.625Z,54.17
2018-01-07T07:00:54.717Z,48.67
2018-01-07T07:03:22.822Z,47.03
2018-01-07T07:05:50.929Z,110.97
2018-01-07T07:08:19.108Z,123.43
2018-01-07T07:10:47.206Z,116.80
2018-01-07T07:13:15.340Z,43.63
2018-01-07T07:15:43.429Z,35.50
2018-01-07T07:18:11.544Z,57.77
2018-01-07T07:20:39.647Z,73.57
2018-01-07T07:23:07.811Z,31.17
2018-01-07T07:25:35.934Z,36.53
2018-01-07T07:28:04.035Z,29.87
2018-01-07T07:30:32.151Z,43.40
2018-01-07T07:33:00.247Z,20.60
2018-01-07T07:35:29.179Z,23.80
2018-01-07T07:37:57.294Z,24.73
2018-01-07T07:40:25.416Z,25.50
2018-01-07T07:42:53.509Z,28.03
2018-01-07T07:45:22.045Z,27.13
2018-01-07T07:47:50.896Z,21.33
2018-01-07T07:50:19.029Z,25.50
2018-01-07T07:52:47.129Z,31.23
2018-01-07T07:55:15.218Z,19.00
2018-01-07T07:57:43.323Z,27.03
2018-01-07T08:00:11.476Z,22.00
2018-01-07T08:02:39.572Z,21.57
2018-01-07T08:05:07.688Z,20.00
2018-01-07T08:07:35.793Z,22.43
2018-01-07T08:10:03.884Z,26.90
2018-01-07T08:12:31.988Z,17.67
2018-01-07T08:15:00.075Z,17.63
2018-01-07T08:17:28.248Z,23.37
2018-01-07T08:19:56.330Z,30.80
2018-01-07T08:22:24.456Z,18.87
2018-01-07T08:24:52.538Z,20.20
2018-01-07T08:27:20.673Z,18.33
2018-01-07T08:29:48.749Z,17.57
2018-01-07T08:32:16.915Z,17.07
2018-01-07T08:34:45.079Z,14.07
2018-01-07T08:37:13.128Z,16.33
2018-01-07T08:39:41.385Z,26.27
2018-01-07T08:42:09.545Z,15.33
2018-01-07T08:44:37.708Z,24.13
2018-01-07T08:47:05.795Z,17.50
2018-01-07T08:49:33.899Z,13.80
2018-01-07T08:52:02.017Z,15.57
2018-01-07T08:54:30.904Z,13.70
2018-01-07T08:56:59.773Z,13.10
2018-01-07T08:59:27.858Z,12.53
2018-01-07T09:01:56.743Z,14.40
2018-01-07T09:04:24.850Z,17.47
2018-01-07T09:06:52.950Z,15.90
2018-01-07T09:09:21.051Z,18.10
2018-01-07T09:12:11.789Z,14.77
2018-01-07T09:14:40.666Z,14.97
2018-01-07T09:17:08.834Z,16.40
2018-01-07T09:19:36.954Z,15.07
2018-01-07T09:22:05.058Z,15.00
2018-01-07T09:24:33.206Z,14.20
2018-01-07T09:27:01.310Z,15.83
2018-01-07T09:29:29.427Z,15.17
2018-01-07T09:31:57.582Z,14.00
2018-01-07T09:34:26.472Z,11.33
2018-01-07T09:36:54.552Z,13.13
2018-01-07T09:39:22.667Z,12.67
2018-01-07T09:41:50.752Z,14.30
2018-01-07T09:44:18.848Z,14.50
2018-01-07T09:46:46.927Z,12.70
2018-01-07T09:49:15.049Z,14.57
2018-01-07T09:51:43.136Z,16.90
2018-01-07T09:54:11.288Z,11.80
2018-01-07T09:56:39.371Z,14.90
2018-01-07T09:59:07.502Z,12.23
2018-01-07T10:01:35.609Z,14.83
2018-01-07T10:04:03.695Z,14.17
2018-01-07T10:06:31.810Z,13.50
2018-01-07T10:09:00.708Z,14.27
2018-01-07T10:11:28.893Z,13.33
2018-01-07T10:13:57.025Z,16.70
2018-01-07T10:16:25.149Z,18.10
2018-01-07T10:18:53.242Z,17.77
2018-01-07T10:21:21.336Z,18.77
2018-01-07T10:23:49.463Z,15.90
2018-01-07T10:26:17.682Z,16.27
2018-01-07T10:28:45.806Z,16.37
2018-01-07T10:31:13.936Z,15.40
2018-01-07T10:33:42.030Z,16.77
2018-01-07T10:36:10.911Z,16.97
2018-01-07T10:38:39.013Z,17.83
2018-01-07T10:41:07.112Z,16.53
2018-01-07T10:43:35.217Z,17.53
2018-01-07T10:46:03.314Z,18.37
2018-01-07T10:48:31.404Z,17.23
2018-01-07T10:50:59.548Z,18.50
2018-01-07T10:53:28.556Z,15.33
2018-01-07T10:55:56.696Z,18.63
2018-01-07T10:58:24.857Z,14.37
2018-01-07T11:00:58.633Z,15.20
2018-01-07T11:03:26.737Z,16.40
2018-01-07T11:05:54.836Z,15.50
2018-01-07T11:08:23.800Z,14.23
2018-01-07T11:10:51.918Z,14.43
2018-01-07T11:13:20.292Z,14.90
2018-01-07T11:15:48.481Z,15.80
2018-01-07T11:18:16.583Z,15.80
2018-01-07T11:20:45.294Z,15.13
2018-01-07T11:23:13.397Z,14.47
2018-01-07T11:25:41.517Z,13.73
2018-01-07T11:28:09.804Z,16.60
2018-01-07T11:30:37.976Z,12.10
2018-01-07T11:33:06.074Z,13.47
2018-01-07T11:35:34.240Z,14.30
2018-01-07T11:38:03.135Z,13.40
2018-01-07T11:40:31.228Z,14.23
2018-01-07T11:42:59.416Z,13.70
2018-01-07T11:45:27.499Z,12.97
2018-01-07T11:47:55.624Z,14.63
2018-01-07T11:50:24.492Z,14.70
2018-01-07T11:52:52.585Z,15.50
2018-01-07T11:55:21.464Z,14.97
2018-01-07T11:57:49.588Z,15.03
2018-01-07T12:00:17.698Z,17.03
2018-01-07T12:02:45.845Z,16.60
2018-01-07T12:05:13.941Z,15.10
2018-01-07T12:07:42.039Z,17.60
2018-01-07T12:10:10.142Z,16.83
2018-01-07T12:12:38.299Z,15.33
2018-01-07T12:15:06.399Z,13.97
2018-01-07T12:17:35.476Z,16.70
2018-01-07T12:20:04.178Z,13.00
2018-01-07T12:22:32.307Z,14.63
2018-01-07T12:25:00.485Z,20.30
2018-01-07T12:27:28.742Z,17.67
2018-01-07T12:29:56.861Z,15.03
2018-01-07T12:32:24.961Z,14.33
2018-01-07T12:34:53.066Z,15.63
2018-01-07T12:37:21.179Z,15.20
2018-01-07T12:39:49.286Z,14.37
2018-01-07T12:42:17.384Z,14.23
2018-01-07T12:44:45.993Z,16.17
2018-01-07T12:47:14.853Z,14.53
2018-01-07T12:49:42.944Z,15.70
2018-01-07T12:52:11.802Z,14.57
2018-01-07T12:54:39.949Z,13.30
2018-01-07T12:57:08.080Z,11.67
2018-01-07T12:59:36.169Z,13.53
2018-01-07T13:02:04.272Z,14.30
2018-01-07T13:04:32.372Z,12.97
2018-01-07T13:07:00.480Z,11.43
2018-01-07T13:09:28.584Z,12.47
2018-01-07T13:11:56.695Z,10.83
2018-01-07T13:14:24.792Z,10.70
2018-01-07T13:16:52.903Z,10.63
2018-01-07T13:19:21.033Z,12.03
2018-01-07T13:21:49.923Z,11.10
2018-01-07T13:24:18.110Z,9.87
2018-01-07T13:26:46.225Z,11.03
2018-01-07T13:29:14.321Z,10.53
2018-01-07T13:31:42.849Z,11.03
2018-01-07T13:34:10.980Z,11.97
2018-01-07T13:36:39.066Z,11.87
2018-01-07T13:39:07.207Z,10.80
2018-01-07T13:41:35.296Z,9.60
2018-01-07T13:44:03.412Z,11.53
2018-01-07T13:46:31.521Z,9.63
2018-01-07T13:48:59.665Z,9.30
2018-01-07T13:51:27.843Z,8.60
2018-01-07T13:53:56.035Z,10.13
2018-01-07T13:56:24.147Z,9.27
2018-01-07T13:58:52.293Z,8.93
2018-01-07T14:01:20.412Z,8.50
2018-01-07T14:03:48.628Z,9.70
2018-01-07T14:06:16.734Z,10.03
2018-01-07T14:08:44.826Z,8.60
2018-01-07T14:11:13.038Z,8.27
2018-01-07T14:13:41.134Z,9.70
2018-01-07T14:16:09.301Z,10.17
2018-01-07T14:18:37.427Z,11.17
2018-01-07T14:21:05.559Z,10.73
2018-01-07T14:23:33.636Z,8.70
2018-01-07T14:26:01.740Z,10.07
2018-01-07T14:28:29.950Z,8.43
2018-01-07T14:30:58.129Z,13.47
2018-01-07T14:33:26.238Z,10.20
2018-01-07T14:35:54.373Z,8.80
2018-01-07T14:38:23.089Z,10.73
2018-01-07T14:40:51.999Z,10.07
2018-01-07T14:43:20.147Z,9.97
2018-01-07T14:45:48.255Z,11.47
2018-01-07T14:48:16.379Z,14.63
2018-01-07T14:50:44.479Z,14.07
2018-01-07T14:53:12.608Z,15.50
2018-01-07T14:55:40.703Z,16.67
2018-01-07T14:58:09.039Z,18.07
2018-01-07T15:00:37.366Z,17.17
2018-01-07T15:03:06.173Z,18.23
2018-01-07T15:05:35.047Z,18.43
2018-01-07T15:08:03.163Z,19.03
2018-01-07T15:10:31.307Z,19.27
2018-01-07T15:12:59.433Z,21.57
2018-01-07T15:15:27.592Z,20.70
2018-01-07T15:17:55.749Z,22.07
2018-01-07T15:20:24.021Z,18.00
2018-01-07T15:22:52.209Z,16.37
2018-01-07T15:25:20.421Z,17.43
2018-01-07T15:27:48.745Z,17.73
2018-01-07T15:30:16.903Z,17.57
2018-01-07T15:32:45.037Z,16.23
2018-01-07T15:35:13.189Z,16.20
2018-01-07T15:37:41.357Z,10.60
2018-01-07T15:40:09.853Z,9.87
2018-01-07T15:42:38.032Z,14.87
2018-01-07T15:45:06.195Z,9.27
2018-01-07T15:47:34.321Z,10.10
2018-01-07T15:50:03.253Z,13.43
2018-01-07T15:52:31.419Z,11.50
2018-01-07T15:54:59.551Z,11.43
2018-01-07T15:57:28.521Z,12.13
2018-01-07T15:59:56.719Z,14.23
2018-01-07T16:02:24.869Z,15.27
2018-01-07T16:04:53.021Z,12.93
2018-01-07T16:07:21.150Z,15.77
2018-01-07T16:09:49.733Z,15.37
2018-01-07T16:12:19.067Z,14.03
2018-01-07T16:14:47.239Z,14.20
2018-01-07T16:17:15.427Z,16.33
2018-01-07T16:19:43.606Z,16.13
2018-01-07T16:22:11.744Z,17.03
2018-01-07T16:24:39.977Z,15.47
2018-01-07T16:27:08.199Z,17.13
2018-01-07T16:29:36.384Z,18.33
2018-01-07T16:32:04.519Z,18.77
2018-01-07T16:34:33.469Z,19.03
2018-01-07T16:37:01.625Z,23.80
2018-01-07T16:39:29.972Z,21.97
2018-01-07T16:41:58.277Z,22.80
2018-01-07T16:44:27.373Z,22.77
2018-01-07T16:46:55.617Z,22.23
2018-01-07T16:49:23.750Z,17.10
2018-01-07T16:51:51.992Z,18.87
2018-01-07T16:54:20.210Z,24.10
2018-01-07T16:56:48.471Z,23.20
2018-01-07T16:59:16.605Z,23.80
2018-01-07T17:01:44.753Z,24.27
2018-01-07T17:04:12.931Z,29.33
2018-01-07T17:06:42.284Z,24.43
2018-01-07T17:09:10.441Z,25.53
2018-01-07T17:11:39.378Z,28.27
2018-01-07T17:14:07.548Z,26.00
2018-01-07T17:16:35.670Z,26.50
2018-01-07T17:19:03.858Z,26.77
2018-01-07T17:21:32.094Z,30.60
2018-01-07T17:24:00.978Z,26.20
2018-01-07T17:26:30.111Z,28.60
2018-01-07T17:28:58.244Z,28.23
2018-01-07T17:31:26.373Z,31.67
2018-01-07T17:33:54.542Z,32.53
2018-01-07T17:36:22.672Z,28.97
2018-01-07T17:38:50.863Z,28.87
2018-01-07T17:41:19.054Z,28.77
2018-01-07T17:43:47.257Z,28.83
2018-01-07T17:46:15.475Z,28.23
2018-01-07T17:48:43.626Z,27.80
2018-01-07T17:51:11.732Z,29.43
2018-01-07T17:53:39.921Z,27.93
2018-01-07T17:56:08.061Z,32.60
2018-01-07T17:58:36.275Z,28.47
2018-01-07T18:01:05.322Z,26.87
2018-01-07T18:03:34.275Z,27.23
2018-01-07T18:06:02.504Z,25.87
2018-01-07T18:08:35.233Z,27.33
2018-01-07T18:11:03.423Z,28.63
2018-01-07T18:13:31.646Z,33.10
2018-01-07T18:15:59.861Z,28.10
2018-01-07T18:18:28.058Z,27.80
2018-01-07T18:20:56.312Z,25.63
2018-01-07T18:23:24.513Z,26.80
2018-01-07T18:25:52.748Z,27.03
2018-01-07T18:28:20.981Z,30.43
2018-01-07T18:30:50.111Z,31.43
2018-01-07T18:33:18.324Z,24.40
2018-01-07T18:35:46.670Z,30.40
2018-01-07T18:38:14.864Z,26.50
2018-01-07T18:40:43.050Z,28.80
2018-01-07T18:43:11.305Z,27.67
2018-01-07T18:45:40.688Z,28.00
2018-01-07T18:48:08.957Z,26.53
2018-01-07T18:50:37.124Z,25.90
2018-01-07T18:53:05.359Z,24.67
2018-01-07T18:55:34.380Z,27.30
2018-01-07T18:58:02.599Z,28.23
2018-01-07T19:00:30.839Z,24.67
2018-01-07T19:02:59.151Z,27.30
2018-01-07T19:05:27.373Z,31.37
2018-01-07T19:07:56.465Z,28.87
2018-01-07T19:10:24.698Z,25.70
2018-01-07T19:12:52.936Z,25.77
2018-01-07T19:15:21.926Z,29.20
2018-01-07T19:17:50.457Z,27.10
2018-01-07T19:20:18.780Z,27.10
2018-01-07T19:22:46.976Z,28.27
2018-01-07T19:25:15.242Z,27.63
2018-01-07T19:27:43.514Z,25.27
2018-01-07T19:30:12.719Z,25.57
2018-01-07T19:32:41.774Z,28.60
2018-01-07T19:35:11.019Z,27.00
2018-01-07T19:37:40.328Z,27.67
2018-01-07T19:40:08.735Z,28.70
2018-01-07T19:42:38.446Z,26.73
2018-01-07T19:45:06.792Z,26.43
2018-01-07T19:47:36.029Z,27.27
2018-01-07T19:50:04.904Z,26.43
2018-01-07T19:52:33.216Z,24.83
2018-01-07T19:55:01.500Z,29.47
2018-01-07T19:57:29.784Z,28.10
2018-01-07T19:59:58.964Z,25.10
2018-01-07T20:02:28.081Z,27.53
2018-01-07T20:04:56.356Z,29.90
2018-01-07T20:07:26.149Z,24.93
2018-01-07T20:09:54.453Z,25.70
2018-01-07T20:12:22.802Z,27.50
2018-01-07T20:14:54.626Z,29.23
2018-01-07T20:17:24.154Z,27.53
2018-01-07T20:19:57.013Z,25.70
2018-01-07T20:22:26.469Z,26.57
2018-01-07T20:24:54.792Z,27.93
2018-01-07T20:27:23.198Z,30.13
2018-01-07T20:29:52.341Z,29.23
2018-01-07T20:32:20.674Z,25.30
2018-01-07T20:34:50.714Z,27.30
2018-01-07T20:37:19.044Z,29.67
2018-01-07T20:39:51.271Z,26.77
2018-01-07T20:42:20.950Z,25.37
2018-01-07T20:44:49.984Z,32.30
2018-01-07T20:47:18.268Z,29.33
2018-01-07T20:49:47.418Z,28.50
2018-01-07T20:52:16.444Z,26.50
2018-01-07T21:07:41.464Z,27.10
2018-01-07T21:10:09.804Z,29.00
2018-01-07T21:12:38.190Z,29.17
2018-01-07T21:15:06.451Z,27.37
2018-01-07T21:17:34.778Z,28.03
2018-01-07T21:20:02.988Z,29.77
2018-01-07T21:22:31.349Z,31.17
2018-01-07T21:24:59.760Z,28.30
2018-01-07T21:27:28.977Z,32.67
2018-01-07T21:29:57.194Z,28.20
2018-01-07T21:32:25.459Z,32.67
2018-01-07T21:34:53.714Z,32.03
2018-01-07T21:37:21.982Z,33.20
2018-01-07T21:39:50.208Z,28.93
2018-01-07T21:42:18.570Z,30.50
2018-01-07T21:44:46.849Z,27.27
2018-01-07T21:47:15.094Z,28.23
2018-01-07T21:49:43.321Z,29.40
2018-01-07T21:52:12.303Z,28.47
2018-01-07T21:54:41.383Z,27.87
2018-01-07T21:57:09.739Z,31.37
2018-01-07T22:02:45.539Z,30.33
2018-01-07T22:05:15.696Z,28.07
2018-01-07T22:07:43.976Z,28.57
2018-01-07T22:10:12.566Z,30.87
2018-01-07T22:12:40.742Z,32.60
2018-01-07T22:15:08.928Z,31.63
2018-01-07T22:17:37.125Z,30.97
2018-01-07T22:20:06.147Z,31.10
2018-01-07T22:22:34.308Z,34.30
2018-01-07T22:25:03.208Z,32.03
2018-01-07T22:27:31.350Z,30.57
2018-01-07T22:29:59.565Z,34.27
2018-01-07T22:32:27.798Z,30.43
2018-01-07T22:34:56.102Z,33.37
2018-01-07T22:37:24.977Z,34.23
2018-01-07T22:39:53.885Z,32.87
2018-01-07T22:42:22.837Z,34.60
2018-01-07T22:44:51.015Z,32.83
2018-01-07T22:47:24.894Z,32.23
2018-01-07T22:49:53.141Z,29.23
2018-01-07T22:52:21.327Z,33.80
2018-01-07T22:54:49.530Z,37.40
2018-01-07T22:57:17.734Z,30.60
2018-01-07T22:59:45.871Z,34.93
2018-01-07T23:02:14.015Z,32.77
2018-01-07T23:04:42.145Z,31.33
2018-01-07T23:07:10.395Z,34.77
2018-01-07T23:09:38.535Z,31.97
2018-01-07T23:12:06.723Z,32.23
2018-01-07T23:14:34.928Z,33.90
2018-01-07T23:17:03.274Z,33.90
2018-01-07T23:19:31.410Z,32.20
2018-01-07T23:21:59.614Z,29.13
2018-01-07T23:24:27.843Z,30.60
2018-01-07T23:26:56.029Z,33.90
2018-01-07T23:29:24.276Z,33.43
2018-01-07T23:31:52.541Z,31.40
2018-01-07T23:34:20.850Z,34.17
2018-01-07T23:36:49.133Z,30.03
2018-01-07T23:39:17.264Z,31.73
2018-01-07T23:41:45.408Z,33.40
2018-01-07T23:44:14.314Z,35.40
2018-01-07T23:46:42.444Z,38.67
2018-01-07T23:49:10.555Z,35.53
2018-01-07T23:51:39.542Z,36.30
2018-01-07T23:54:07.779Z,35.03
2018-01-07T23:56:35.975Z,34.93
2018-01-07T23:59:04.209Z,37.03
